createdAt,value
2022-10-19T00:00:05.976Z,11.33
2022-10-19T00:02:37.247Z,11.36
2022-10-19T00:05:05.546Z,11.40
2022-10-19T00:07:34.977Z,11.41
2022-10-19T00:10:03.077Z,11.61
2022-10-19T00:12:30.990Z,11.66
2022-10-19T00:14:59.307Z,11.42
2022-10-19T00:17:28.693Z,11.56
2022-10-19T00:19:56.734Z,11.48
2022-10-19T00:22:24.749Z,11.49
2022-10-19T00:24:52.795Z,11.49
2022-10-19T00:27:20.689Z,11.54
2022-10-19T00:29:48.666Z,11.55
2022-10-19T00:32:16.550Z,11.59
2022-10-19T00:34:45.877Z,11.66
2022-10-19T00:37:13.773Z,11.57
2022-10-19T00:39:41.735Z,11.60
2022-10-19T00:42:12.054Z,11.56
2022-10-19T00:45:01.460Z,11.53
2022-10-19T00:47:29.530Z,11.64
2022-10-19T00:49:59.229Z,11.55
2022-10-19T00:52:27.417Z,11.62
2022-10-19T00:54:56.250Z,11.53
2022-10-19T00:57:24.649Z,11.66
2022-10-19T00:59:52.848Z,11.55
2022-10-19T01:02:20.709Z,11.59
2022-10-19T01:04:51.760Z,11.61
2022-10-19T01:07:21.249Z,11.56
2022-10-19T01:09:49.136Z,11.61
2022-10-19T01:12:25.539Z,11.67
2022-10-19T01:15:05.085Z,11.58
2022-10-19T01:17:42.293Z,11.56
2022-10-19T01:20:54.491Z,11.49
2022-10-19T01:23:54.629Z,11.53
2022-10-19T01:26:41.493Z,11.51
2022-10-19T01:29:13.770Z,11.43
2022-10-19T01:31:46.838Z,11.59
2022-10-19T01:34:18.237Z,11.65
2022-10-19T01:36:56.830Z,11.64
2022-10-19T01:39:28.093Z,11.59
2022-10-19T01:42:01.290Z,11.54
2022-10-19T01:44:32.609Z,11.27
2022-10-19T01:47:05.518Z,11.30
2022-10-19T01:49:36.175Z,11.31
2022-10-19T01:52:06.247Z,11.48
2022-10-19T01:54:37.669Z,11.41
2022-10-19T01:57:07.920Z,11.36
2022-10-19T01:59:37.771Z,11.56
2022-10-19T02:02:07.457Z,11.52
2022-10-19T02:04:36.762Z,11.55
2022-10-19T02:07:06.266Z,11.77
2022-10-19T02:09:34.235Z,11.60
2022-10-19T02:12:04.713Z,11.64
2022-10-19T02:14:35.257Z,11.57
2022-10-19T02:17:06.373Z,11.35
2022-10-19T02:19:36.165Z,11.47
2022-10-19T02:22:04.117Z,11.42
2022-10-19T02:24:32.010Z,11.47
2022-10-19T02:27:00.650Z,11.48
2022-10-19T02:29:29.074Z,11.59
2022-10-19T02:31:56.964Z,11.52
2022-10-19T02:34:24.873Z,11.54
2022-10-19T02:36:54.187Z,11.43
2022-10-19T02:39:22.290Z,11.36
2022-10-19T02:41:53.086Z,11.25
2022-10-19T02:44:23.824Z,11.39
2022-10-19T02:46:54.364Z,11.28
2022-10-19T02:49:22.713Z,11.60
2022-10-19T02:52:00.790Z,11.32
2022-10-19T02:54:29.121Z,11.35
2022-10-19T02:56:57.386Z,11.55
2022-10-19T02:59:25.986Z,11.33
2022-10-19T03:01:54.073Z,11.52
2022-10-19T03:04:21.942Z,11.35
2022-10-19T03:06:49.830Z,11.40
2022-10-19T03:09:19.242Z,11.49
2022-10-19T03:11:47.155Z,11.32
2022-10-19T03:14:15.066Z,11.28
2022-10-19T03:16:42.949Z,11.05
2022-10-19T03:19:10.813Z,11.11
2022-10-19T03:21:38.813Z,11.09
2022-10-19T03:24:07.369Z,11.08
2022-10-19T03:26:36.614Z,11.07
2022-10-19T03:29:05.001Z,11.11
2022-10-19T03:31:32.929Z,11.19
2022-10-19T03:34:02.069Z,11.20
2022-10-19T03:36:31.949Z,11.25
2022-10-19T03:39:01.368Z,11.38
2022-10-19T03:41:31.176Z,11.25
2022-10-19T03:46:33.885Z,11.28
2022-10-19T03:49:01.806Z,11.44
2022-10-19T03:51:31.010Z,11.34
2022-10-19T03:54:01.046Z,11.44
2022-10-19T03:56:30.521Z,11.24
2022-10-19T03:59:01.088Z,11.31
2022-10-19T04:01:31.206Z,11.38
2022-10-19T04:04:00.567Z,11.31
2022-10-19T04:06:30.182Z,11.32
2022-10-19T04:08:58.320Z,11.32
2022-10-19T04:11:30.084Z,11.18
2022-10-19T04:14:00.242Z,11.31
2022-10-19T04:16:29.556Z,11.28
2022-10-19T04:18:57.694Z,11.39
2022-10-19T04:21:27.657Z,11.49
2022-10-19T04:23:59.081Z,11.49
2022-10-19T04:26:27.264Z,11.48
2022-10-19T04:28:55.201Z,11.54
2022-10-19T04:31:24.477Z,11.49
2022-10-19T04:33:52.404Z,11.36
2022-10-19T04:36:20.508Z,11.43
2022-10-19T04:38:48.450Z,11.47
2022-10-19T04:41:18.797Z,11.40
2022-10-19T04:43:47.089Z,11.38
2022-10-19T04:46:16.412Z,11.36
2022-10-19T04:48:46.542Z,11.39
2022-10-19T04:51:14.644Z,11.24
2022-10-19T04:53:43.492Z,11.09
2022-10-19T04:56:14.021Z,11.13
2022-10-19T04:58:41.928Z,10.98
2022-10-19T05:01:10.918Z,11.11
2022-10-19T05:03:38.957Z,11.03
2022-10-19T05:06:08.428Z,11.08
2022-10-19T05:08:36.637Z,10.97
2022-10-19T05:11:05.469Z,10.92
2022-10-19T05:13:33.989Z,11.04
2022-10-19T05:16:04.791Z,11.15
2022-10-19T05:18:33.165Z,11.30
2022-10-19T05:21:05.322Z,11.23
2022-10-19T05:23:34.906Z,11.10
2022-10-19T05:26:03.639Z,11.13
2022-10-19T05:28:31.995Z,11.20
2022-10-19T05:31:07.812Z,11.27
2022-10-19T05:33:35.789Z,11.20
2022-10-19T05:36:13.061Z,11.21
2022-10-19T05:38:42.454Z,11.34
2022-10-19T05:41:10.472Z,11.07
2022-10-19T05:43:38.365Z,10.99
2022-10-19T05:46:08.182Z,10.95
2022-10-19T05:48:36.350Z,11.02
2022-10-19T05:51:06.270Z,11.07
2022-10-19T05:53:35.132Z,11.16
2022-10-19T05:56:05.777Z,11.18
2022-10-19T05:58:33.757Z,11.17
2022-10-19T06:01:02.090Z,11.24
2022-10-19T06:03:30.158Z,11.16
2022-10-19T06:05:58.149Z,11.19
2022-10-19T06:08:26.259Z,11.35
2022-10-19T06:10:54.194Z,11.33
2022-10-19T06:13:23.473Z,11.26
2022-10-19T06:15:52.374Z,11.19
2022-10-19T06:18:20.437Z,11.27
2022-10-19T06:20:48.521Z,11.36
2022-10-19T06:23:16.377Z,11.33
2022-10-19T06:25:44.266Z,11.20
2022-10-19T06:28:12.219Z,11.18
2022-10-19T06:30:42.090Z,11.13
2022-10-19T06:33:10.045Z,11.16
2022-10-19T06:35:38.450Z,11.18
2022-10-19T06:38:06.403Z,11.33
2022-10-19T06:40:34.370Z,11.37
2022-10-19T06:43:02.357Z,11.30
2022-10-19T06:45:35.688Z,11.15
2022-10-19T06:48:07.663Z,11.23
2022-10-19T06:50:35.918Z,11.50
2022-10-19T06:53:03.817Z,11.56
2022-10-19T06:55:31.780Z,11.52
2022-10-19T06:58:01.671Z,11.50
2022-10-19T07:00:30.012Z,11.57
2022-10-19T07:02:59.732Z,11.51
2022-10-19T07:05:29.129Z,11.41
2022-10-19T07:07:58.515Z,11.47
2022-10-19T07:10:26.508Z,11.48
2022-10-19T07:12:54.420Z,11.41
2022-10-19T07:15:22.383Z,11.39
2022-10-19T07:17:50.249Z,11.48
2022-10-19T07:20:18.314Z,11.52
2022-10-19T07:22:47.594Z,11.54
2022-10-19T07:25:15.626Z,11.56
2022-10-19T07:27:43.887Z,11.62
2022-10-19T07:30:12.697Z,11.59
2022-10-19T07:32:44.532Z,11.64
2022-10-19T07:35:14.946Z,11.78
2022-10-19T07:37:42.925Z,11.86
2022-10-19T07:40:14.010Z,11.81
2022-10-19T07:42:41.916Z,11.77
2022-10-19T07:45:10.449Z,11.83
2022-10-19T07:47:38.361Z,11.84
2022-10-19T07:50:06.850Z,11.92
2022-10-19T07:52:36.906Z,11.99
2022-10-19T07:55:05.525Z,12.00
2022-10-19T07:57:34.990Z,12.08
2022-10-19T08:00:03.018Z,11.98
2022-10-19T08:02:39.591Z,12.12
2022-10-19T08:05:19.001Z,12.21
2022-10-19T08:07:47.213Z,12.32
2022-10-19T08:10:15.129Z,12.35
2022-10-19T08:12:44.522Z,12.39
2022-10-19T08:15:12.437Z,12.47
2022-10-19T08:17:40.546Z,12.48
2022-10-19T08:20:09.293Z,12.52
2022-10-19T08:22:37.481Z,12.50
2022-10-19T08:25:06.167Z,12.55
2022-10-19T08:27:34.073Z,12.50
2022-10-19T08:30:03.323Z,12.51
2022-10-19T08:32:31.498Z,12.64
2022-10-19T08:34:59.596Z,12.76
2022-10-19T08:37:43.711Z,12.88
2022-10-19T08:40:19.090Z,12.92
2022-10-19T08:42:55.038Z,13.02
2022-10-19T08:48:25.452Z,13.09
2022-10-19T08:50:54.279Z,13.18
2022-10-19T08:53:33.573Z,13.33
2022-10-19T08:56:12.431Z,13.35
2022-10-19T08:59:05.065Z,13.36
2022-10-19T09:01:40.708Z,13.33
2022-10-19T09:04:14.333Z,13.36
2022-10-19T09:06:50.005Z,13.46
2022-10-19T09:09:19.878Z,13.65
2022-10-19T09:11:49.892Z,13.71
2022-10-19T09:14:23.003Z,13.77
2022-10-19T09:16:52.296Z,13.94
2022-10-19T09:19:25.997Z,14.02
2022-10-19T09:21:57.904Z,14.10
2022-10-19T09:24:30.842Z,13.98
2022-10-19T09:27:00.287Z,14.06
2022-10-19T09:29:32.866Z,14.01
2022-10-19T09:32:05.986Z,14.00
2022-10-19T09:34:36.843Z,14.17
2022-10-19T09:37:05.119Z,14.11
2022-10-19T09:39:33.273Z,14.23
2022-10-19T09:42:07.569Z,14.39
2022-10-19T09:44:35.481Z,14.59
2022-10-19T09:47:19.286Z,14.65
2022-10-19T09:49:48.111Z,14.72
2022-10-19T09:52:25.766Z,14.86
2022-10-19T09:55:01.353Z,14.94
2022-10-19T09:57:29.353Z,15.04
2022-10-19T09:59:57.498Z,14.91
2022-10-19T10:02:32.798Z,15.03
2022-10-19T10:05:07.618Z,15.26
2022-10-19T10:07:37.863Z,15.26
2022-10-19T10:10:12.301Z,15.15
2022-10-19T10:12:41.776Z,15.26
2022-10-19T10:15:15.025Z,15.43
2022-10-19T10:17:46.397Z,15.56
2022-10-19T10:20:24.662Z,15.67
2022-10-19T10:22:56.596Z,15.43
2022-10-19T10:25:28.183Z,15.29
2022-10-19T10:27:58.830Z,15.11
2022-10-19T10:30:28.392Z,15.09
2022-10-19T10:33:04.697Z,15.26
2022-10-19T10:35:49.133Z,15.44
2022-10-19T10:38:19.637Z,15.55
2022-10-19T10:40:52.109Z,15.69
2022-10-19T10:43:22.447Z,15.64
2022-10-19T10:45:53.057Z,15.76
2022-10-19T10:48:28.675Z,15.67
2022-10-19T10:50:56.911Z,15.73
2022-10-19T10:53:37.213Z,15.72
2022-10-19T10:56:06.635Z,15.56
2022-10-19T10:58:40.277Z,15.64
2022-10-19T11:01:15.282Z,15.83
2022-10-19T11:03:50.589Z,15.87
2022-10-19T11:06:19.872Z,15.86
2022-10-19T11:08:51.558Z,15.90
2022-10-19T11:11:22.939Z,16.02
2022-10-19T11:13:54.386Z,15.87
2022-10-19T11:16:25.750Z,16.17
2022-10-19T11:18:58.025Z,16.23
2022-10-19T11:21:28.218Z,16.36
2022-10-19T11:24:04.273Z,16.52
2022-10-19T11:26:43.038Z,16.22
2022-10-19T11:29:25.172Z,16.16
2022-10-19T11:31:55.313Z,16.27
2022-10-19T11:34:37.109Z,16.55
2022-10-19T11:37:12.502Z,16.45
2022-10-19T11:39:48.902Z,16.67
2022-10-19T11:42:20.729Z,16.92
2022-10-19T11:44:59.800Z,17.02
2022-10-19T11:47:43.502Z,16.90
2022-10-19T11:50:24.344Z,16.86
2022-10-19T11:53:00.996Z,16.74
2022-10-19T11:55:36.880Z,16.92
2022-10-19T11:58:11.718Z,16.80
2022-10-19T12:00:48.070Z,16.80
2022-10-19T12:03:45.474Z,16.26
2022-10-19T12:06:18.928Z,15.68
2022-10-19T12:09:07.107Z,16.31
2022-10-19T12:11:46.463Z,16.75
2022-10-19T12:14:17.065Z,16.55
2022-10-19T12:16:49.885Z,17.25
2022-10-19T12:19:20.685Z,17.19
2022-10-19T12:21:50.015Z,17.59
2022-10-19T12:24:21.158Z,17.56
2022-10-19T12:26:49.182Z,17.63
2022-10-19T12:29:21.057Z,17.87
2022-10-19T12:31:49.402Z,17.76
2022-10-19T12:34:28.231Z,17.85
2022-10-19T12:37:02.146Z,17.79
2022-10-19T12:39:36.435Z,18.05
2022-10-19T12:42:11.918Z,17.70
2022-10-19T12:45:02.628Z,17.82
2022-10-19T12:47:30.515Z,17.50
2022-10-19T12:49:58.866Z,17.29
2022-10-19T12:52:45.540Z,17.13
2022-10-19T12:55:30.516Z,17.20
2022-10-19T12:58:01.810Z,17.00
2022-10-19T13:00:32.991Z,16.87
2022-10-19T13:03:03.460Z,16.97
2022-10-19T13:05:32.870Z,16.76
2022-10-19T13:08:06.947Z,16.93
2022-10-19T13:10:37.217Z,16.98
2022-10-19T13:13:05.720Z,17.49
2022-10-19T13:15:57.813Z,17.31
2022-10-19T13:19:10.842Z,17.54
2022-10-19T13:21:49.945Z,17.77
2022-10-19T13:24:28.727Z,17.63
2022-10-19T13:27:26.129Z,17.62
2022-10-19T13:29:54.091Z,17.44
2022-10-19T13:32:42.938Z,17.17
2022-10-19T13:35:33.310Z,17.02
2022-10-19T13:38:28.898Z,16.39
2022-10-19T13:41:04.851Z,16.75
2022-10-19T13:43:35.096Z,16.70
2022-10-19T13:46:14.598Z,16.93
2022-10-19T13:49:07.189Z,17.07
2022-10-19T13:51:40.027Z,17.05
2022-10-19T13:54:18.760Z,16.67
2022-10-19T13:56:57.323Z,16.82
2022-10-19T13:59:53.818Z,16.33
2022-10-19T14:03:08.045Z,16.44
2022-10-19T14:06:03.081Z,16.58
2022-10-19T14:08:57.127Z,16.66
2022-10-19T14:11:27.901Z,16.74
2022-10-19T14:14:17.774Z,16.92
2022-10-19T14:16:57.111Z,17.21
2022-10-19T14:19:29.503Z,17.46
2022-10-19T14:21:59.140Z,17.11
2022-10-19T14:24:30.754Z,16.90
2022-10-19T14:26:59.053Z,16.85
2022-10-19T14:29:28.382Z,16.94
2022-10-19T14:31:56.466Z,17.01
2022-10-19T14:34:24.615Z,17.13
2022-10-19T14:36:52.757Z,17.12
2022-10-19T14:39:25.932Z,17.30
2022-10-19T14:41:55.867Z,17.34
2022-10-19T14:44:47.291Z,17.41
2022-10-19T14:47:20.558Z,17.17
2022-10-19T14:49:48.609Z,17.44
2022-10-19T14:52:21.374Z,17.42
2022-10-19T14:54:51.688Z,17.46
2022-10-19T14:57:24.824Z,17.37
2022-10-19T14:59:56.462Z,17.17
2022-10-19T15:02:26.273Z,17.34
2022-10-19T15:04:54.736Z,17.26
2022-10-19T15:07:25.389Z,17.33
2022-10-19T15:09:56.394Z,17.22
2022-10-19T15:12:28.619Z,16.78
2022-10-19T15:14:58.681Z,16.67
2022-10-19T15:17:28.682Z,16.78
2022-10-19T15:19:58.460Z,16.31
2022-10-19T15:22:39.559Z,15.93
2022-10-19T15:25:35.444Z,16.19
2022-10-19T15:28:21.572Z,16.15
2022-10-19T15:31:01.134Z,15.78
2022-10-19T15:33:29.713Z,16.02
2022-10-19T15:36:07.902Z,15.80
2022-10-19T15:38:36.517Z,15.67
2022-10-19T15:41:05.610Z,15.13
2022-10-19T15:43:45.650Z,15.09
2022-10-19T15:46:26.849Z,15.04
2022-10-19T15:48:55.794Z,15.14
2022-10-19T15:51:44.354Z,15.12
2022-10-19T15:54:15.863Z,15.00
2022-10-19T15:56:44.787Z,14.87
2022-10-19T15:59:15.675Z,14.86
2022-10-19T16:01:45.636Z,14.63
2022-10-19T16:04:13.555Z,14.71
2022-10-19T16:06:44.411Z,14.43
2022-10-19T16:09:18.786Z,14.02
2022-10-19T16:11:46.878Z,13.79
2022-10-19T16:16:50.467Z,13.52
2022-10-19T16:19:18.371Z,13.16
2022-10-19T16:21:50.131Z,13.08
2022-10-19T16:24:18.420Z,12.71
2022-10-19T16:26:46.336Z,12.52
2022-10-19T16:29:14.224Z,12.40
2022-10-19T16:31:42.138Z,12.70
2022-10-19T16:34:11.426Z,12.99
2022-10-19T16:36:39.413Z,13.03
2022-10-19T16:39:07.373Z,13.30
2022-10-19T16:41:35.613Z,13.43
2022-10-19T16:44:03.554Z,13.34
2022-10-19T16:46:31.542Z,12.76
2022-10-19T16:48:59.625Z,12.61
2022-10-19T16:51:31.608Z,12.82
2022-10-19T16:54:00.038Z,12.34
2022-10-19T16:56:29.465Z,12.24
2022-10-19T16:58:59.758Z,12.16
2022-10-19T17:01:28.039Z,12.12
2022-10-19T17:03:56.556Z,12.19
2022-10-19T17:06:24.858Z,12.49
2022-10-19T17:11:42.717Z,12.34
2022-10-19T17:14:13.013Z,12.05
2022-10-19T17:16:41.692Z,11.82
2022-10-19T17:19:10.841Z,11.84
2022-10-19T17:21:39.549Z,12.04
2022-10-19T17:24:10.106Z,12.03
2022-10-19T17:26:39.651Z,11.56
2022-10-19T17:29:08.035Z,11.40
2022-10-19T17:31:37.391Z,11.44
2022-10-19T17:34:05.785Z,11.67
2022-10-19T17:36:35.936Z,11.34
2022-10-19T17:39:06.477Z,11.35
2022-10-19T17:41:36.093Z,11.30
2022-10-19T17:44:04.758Z,11.40
2022-10-19T17:46:34.481Z,11.20
2022-10-19T17:49:02.642Z,10.94
2022-10-19T17:51:32.660Z,11.28
2022-10-19T17:54:02.245Z,11.30
2022-10-19T17:56:30.521Z,11.23
2022-10-19T17:59:00.057Z,11.05
2022-10-19T18:01:28.178Z,11.12
2022-10-19T18:03:56.593Z,11.24
2022-10-19T18:06:26.581Z,11.09
2022-10-19T18:08:56.183Z,10.97
2022-10-19T18:11:25.582Z,10.86
2022-10-19T18:13:55.387Z,10.88
2022-10-19T18:16:27.568Z,10.63
2022-10-19T18:18:57.033Z,10.35
2022-10-19T18:21:26.684Z,10.37
2022-10-19T18:23:56.959Z,10.46
2022-10-19T18:26:26.497Z,10.21
2022-10-19T18:28:55.317Z,10.45
2022-10-19T18:31:26.038Z,10.39
2022-10-19T18:33:57.838Z,10.27
2022-10-19T18:36:25.878Z,10.26
2022-10-19T18:38:54.705Z,10.14
2022-10-19T18:41:22.924Z,10.30
2022-10-19T18:43:52.491Z,10.33
2022-10-19T18:46:21.156Z,10.37
2022-10-19T18:48:50.721Z,10.37
2022-10-19T18:51:19.881Z,10.38
2022-10-19T18:53:48.602Z,10.19
2022-10-19T18:56:18.728Z,10.24
2022-10-19T18:58:46.893Z,10.23
2022-10-19T19:01:17.444Z,10.23
2022-10-19T19:03:46.926Z,10.10
2022-10-19T19:06:18.581Z,9.78
2022-10-19T19:08:46.565Z,9.90
2022-10-19T19:11:15.618Z,9.88
2022-10-19T19:13:45.068Z,9.46
2022-10-19T19:16:13.030Z,9.74
2022-10-19T19:18:40.995Z,9.62
2022-10-19T19:21:16.820Z,9.47
2022-10-19T19:23:45.178Z,9.49
2022-10-19T19:26:14.698Z,9.59
2022-10-19T19:28:45.267Z,9.50
2022-10-19T19:31:16.458Z,9.58
2022-10-19T19:33:44.806Z,9.61
2022-10-19T19:36:14.206Z,9.70
2022-10-19T19:38:43.817Z,9.43
2022-10-19T19:41:13.478Z,9.89
2022-10-19T19:43:42.526Z,9.95
2022-10-19T19:46:12.645Z,10.11
2022-10-19T19:48:42.214Z,9.50
2022-10-19T19:51:11.450Z,9.96
2022-10-19T19:53:39.641Z,9.83
2022-10-19T19:56:10.323Z,10.08
2022-10-19T19:58:39.786Z,10.04
2022-10-19T20:01:12.436Z,9.87
2022-10-19T20:03:41.979Z,9.63
2022-10-19T20:06:10.385Z,9.60
2022-10-19T20:08:38.370Z,9.68
2022-10-19T20:11:09.488Z,9.84
2022-10-19T20:13:37.880Z,9.73
2022-10-19T20:16:08.917Z,9.67
2022-10-19T20:18:36.817Z,9.84
2022-10-19T20:21:05.795Z,10.13
2022-10-19T20:23:34.333Z,10.10
2022-10-19T20:26:02.296Z,9.88
2022-10-19T20:28:33.487Z,9.82
2022-10-19T20:31:02.851Z,9.86
2022-10-19T20:33:32.077Z,10.04
2022-10-19T20:36:04.862Z,9.98
2022-10-19T20:38:32.773Z,9.78
2022-10-19T20:41:02.971Z,9.72
2022-10-19T20:43:34.928Z,9.53
2022-10-19T20:46:04.285Z,9.60
2022-10-19T20:48:32.233Z,9.69
2022-10-19T20:51:12.346Z,9.61
2022-10-19T20:53:40.394Z,9.62
2022-10-19T20:56:09.961Z,9.58
2022-10-19T20:58:40.941Z,9.41
2022-10-19T21:01:09.880Z,9.31
2022-10-19T21:03:37.786Z,9.31
2022-10-19T21:06:06.640Z,9.10
2022-10-19T21:08:35.111Z,9.09
2022-10-19T21:11:11.838Z,9.28
2022-10-19T21:13:41.482Z,9.38
2022-10-19T21:16:10.873Z,9.16
2022-10-19T21:18:38.780Z,9.44
2022-10-19T21:21:17.861Z,9.28
2022-10-19T21:23:47.158Z,9.46
2022-10-19T21:26:15.196Z,9.07
2022-10-19T21:28:48.750Z,9.18
2022-10-19T21:31:17.966Z,9.53
2022-10-19T21:33:46.169Z,9.52
2022-10-19T21:36:15.489Z,9.66
2022-10-19T21:38:43.694Z,9.52
2022-10-19T21:41:15.679Z,9.49
2022-10-19T21:43:43.906Z,9.30
2022-10-19T21:46:15.103Z,9.33
2022-10-19T21:48:43.591Z,9.12
2022-10-19T21:51:16.829Z,9.30
2022-10-19T21:53:45.272Z,9.11
2022-10-19T21:56:13.406Z,9.08
2022-10-19T21:58:45.639Z,9.17
2022-10-19T22:01:15.814Z,9.12
2022-10-19T22:03:43.774Z,9.14
2022-10-19T22:06:12.076Z,9.30
2022-10-19T22:08:40.448Z,9.06
2022-10-19T22:11:09.432Z,8.88
2022-10-19T22:13:37.673Z,9.10
2022-10-19T22:16:06.389Z,9.16
2022-10-19T22:18:37.106Z,8.87
2022-10-19T22:21:05.751Z,9.00
2022-10-19T22:23:33.655Z,8.84
2022-10-19T22:26:01.598Z,8.63
2022-10-19T22:28:29.773Z,8.76
2022-10-19T22:30:58.625Z,8.93
2022-10-19T22:33:27.010Z,8.77
2022-10-19T22:35:57.506Z,8.67
2022-10-19T22:38:26.232Z,8.82
2022-10-19T22:40:54.185Z,8.99
2022-10-19T22:43:22.140Z,8.98
2022-10-19T22:45:50.481Z,9.00
2022-10-19T22:48:19.270Z,8.47
2022-10-19T22:50:47.750Z,8.37
2022-10-19T22:53:17.064Z,8.74
2022-10-19T22:55:45.109Z,8.64
2022-10-19T22:58:13.020Z,8.61
2022-10-19T23:00:41.126Z,8.72
2022-10-19T23:03:09.034Z,8.64
2022-10-19T23:05:37.574Z,8.76
2022-10-19T23:08:05.833Z,8.83
2022-10-19T23:10:35.097Z,8.81
2022-10-19T23:13:03.012Z,8.85
2022-10-19T23:15:30.910Z,8.89
2022-10-19T23:17:59.359Z,8.59
2022-10-19T23:20:27.333Z,8.76
2022-10-19T23:22:55.209Z,8.74
2022-10-19T23:25:23.158Z,8.73
2022-10-19T23:27:52.649Z,8.49
2022-10-19T23:30:20.604Z,8.42
2022-10-19T23:32:48.506Z,8.23
2022-10-19T23:35:16.540Z,8.11
2022-10-19T23:37:44.430Z,8.27
2022-10-19T23:40:13.127Z,8.27
2022-10-19T23:42:41.378Z,8.31
2022-10-19T23:45:12.939Z,8.24
2022-10-19T23:47:40.869Z,8.03
2022-10-19T23:50:09.325Z,8.00
2022-10-19T23:52:37.259Z,7.89
2022-10-19T23:55:05.904Z,8.15
2022-10-19T23:57:34.105Z,8.15
